sensor_id;sensor_type;location;lat;lon;timestamp;P1;durP1;ratioP1;P2;durP2;ratioP2
70970;SDS011;58632;51.718;19.446;2022-07-29T00:00:52;15.13;;;2.87;;
70970;SDS011;58632;51.718;19.446;2022-07-29T00:03:19;8.00;;;2.60;;
70970;SDS011;58632;51.718;19.446;2022-07-29T00:05:46;5.80;;;2.15;;
70970;SDS011;58632;51.718;19.446;2022-07-29T00:08:14;8.50;;;2.33;;
70970;SDS011;58632;51.718;19.446;2022-07-29T00:10:42;9.68;;;2.55;;
70970;SDS011;58632;51.718;19.446;2022-07-29T00:13:10;6.05;;;2.12;;
70970;SDS011;58632;51.718;19.446;2022-07-29T00:15:37;6.17;;;2.45;;
70970;SDS011;58632;51.718;19.446;2022-07-29T00:18:05;9.50;;;2.70;;
70970;SDS011;58632;51.718;19.446;2022-07-29T00:20:33;4.95;;;2.10;;
70970;SDS011;58632;51.718;19.446;2022-07-29T00:23:01;7.90;;;2.58;;
70970;SDS011;58632;51.718;19.446;2022-07-29T00:25:29;4.80;;;2.35;;
70970;SDS011;58632;51.718;19.446;2022-07-29T00:27:56;6.83;;;2.58;;
70970;SDS011;58632;51.718;19.446;2022-07-29T00:30:23;5.47;;;2.25;;
70970;SDS011;58632;51.718;19.446;2022-07-29T00:32:50;4.78;;;2.10;;
70970;SDS011;58632;51.718;19.446;2022-07-29T00:35:18;6.15;;;2.67;;
70970;SDS011;58632;51.718;19.446;2022-07-29T00:38:03;6.00;;;2.20;;
70970;SDS011;58632;51.718;19.446;2022-07-29T00:40:31;4.90;;;2.00;;
70970;SDS011;58632;51.718;19.446;2022-07-29T00:42:58;4.65;;;2.00;;
70970;SDS011;58632;51.718;19.446;2022-07-29T00:45:25;10.93;;;2.22;;
70970;SDS011;58632;51.718;19.446;2022-07-29T00:47:52;14.58;;;2.83;;
70970;SDS011;58632;51.718;19.446;2022-07-29T00:50:20;12.05;;;2.20;;
70970;SDS011;58632;51.718;19.446;2022-07-29T00:52:47;15.55;;;3.33;;
70970;SDS011;58632;51.718;19.446;2022-07-29T00:55:15;17.77;;;2.85;;
70970;SDS011;58632;51.718;19.446;2022-07-29T00:57:43;5.62;;;2.17;;
70970;SDS011;58632;51.718;19.446;2022-07-29T01:00:13;4.95;;;2.02;;
70970;SDS011;58632;51.718;19.446;2022-07-29T01:02:50;6.05;;;2.22;;
70970;SDS011;58632;51.718;19.446;2022-07-29T01:05:18;5.03;;;2.10;;
70970;SDS011;58632;51.718;19.446;2022-07-29T01:07:48;6.37;;;2.00;;
70970;SDS011;58632;51.718;19.446;2022-07-29T01:10:20;5.42;;;2.12;;
70970;SDS011;58632;51.718;19.446;2022-07-29T01:12:50;4.17;;;1.80;;
70970;SDS011;58632;51.718;19.446;2022-07-29T01:15:21;4.87;;;2.10;;
70970;SDS011;58632;51.718;19.446;2022-07-29T01:23:59;4.62;;;2.05;;
70970;SDS011;58632;51.718;19.446;2022-07-29T01:26:59;5.62;;;2.30;;
70970;SDS011;58632;51.718;19.446;2022-07-29T01:29:55;3.15;;;1.95;;
70970;SDS011;58632;51.718;19.446;2022-07-29T01:32:26;6.10;;;2.37;;
70970;SDS011;58632;51.718;19.446;2022-07-29T01:37:50;10.53;;;3.02;;
70970;SDS011;58632;51.718;19.446;2022-07-29T01:40:29;4.37;;;2.22;;
70970;SDS011;58632;51.718;19.446;2022-07-29T01:43:05;6.35;;;2.45;;
70970;SDS011;58632;51.718;19.446;2022-07-29T01:45:48;5.90;;;2.27;;
70970;SDS011;58632;51.718;19.446;2022-07-29T01:51:12;6.67;;;2.30;;
70970;SDS011;58632;51.718;19.446;2022-07-29T01:53:51;4.83;;;2.25;;
70970;SDS011;58632;51.718;19.446;2022-07-29T01:56:25;5.17;;;2.25;;
70970;SDS011;58632;51.718;19.446;2022-07-29T01:58:57;5.00;;;2.17;;
70970;SDS011;58632;51.718;19.446;2022-07-29T02:01:27;6.40;;;2.02;;
70970;SDS011;58632;51.718;19.446;2022-07-29T02:03:59;6.53;;;2.20;;
70970;SDS011;58632;51.718;19.446;2022-07-29T02:06:29;4.92;;;2.08;;
70970;SDS011;58632;51.718;19.446;2022-07-29T02:09:01;5.80;;;2.70;;
70970;SDS011;58632;51.718;19.446;2022-07-29T02:11:31;4.60;;;2.33;;
70970;SDS011;58632;51.718;19.446;2022-07-29T02:14:01;11.05;;;2.77;;
70970;SDS011;58632;51.718;19.446;2022-07-29T02:16:30;5.35;;;2.02;;
70970;SDS011;58632;51.718;19.446;2022-07-29T02:19:02;8.35;;;2.60;;
70970;SDS011;58632;51.718;19.446;2022-07-29T02:21:32;8.30;;;2.80;;
70970;SDS011;58632;51.718;19.446;2022-07-29T02:24:02;6.45;;;2.52;;
70970;SDS011;58632;51.718;19.446;2022-07-29T02:26:32;4.67;;;2.42;;
70970;SDS011;58632;51.718;19.446;2022-07-29T02:29:01;5.95;;;2.67;;
70970;SDS011;58632;51.718;19.446;2022-07-29T02:31:34;6.15;;;2.35;;
70970;SDS011;58632;51.718;19.446;2022-07-29T02:34:06;7.85;;;2.72;;
70970;SDS011;58632;51.718;19.446;2022-07-29T02:36:33;3.98;;;2.25;;
70970;SDS011;58632;51.718;19.446;2022-07-29T02:39:02;5.75;;;2.45;;
70970;SDS011;58632;51.718;19.446;2022-07-29T02:44:25;5.97;;;2.10;;
70970;SDS011;58632;51.718;19.446;2022-07-29T02:50:04;6.20;;;2.58;;
70970;SDS011;58632;51.718;19.446;2022-07-29T02:52:45;5.33;;;2.50;;
70970;SDS011;58632;51.718;19.446;2022-07-29T02:55:19;6.80;;;2.33;;
70970;SDS011;58632;51.718;19.446;2022-07-29T02:58:01;4.75;;;2.05;;
70970;SDS011;58632;51.718;19.446;2022-07-29T03:00:52;4.62;;;2.40;;
70970;SDS011;58632;51.718;19.446;2022-07-29T03:03:22;5.30;;;2.30;;
70970;SDS011;58632;51.718;19.446;2022-07-29T03:05:54;4.97;;;2.25;;
70970;SDS011;58632;51.718;19.446;2022-07-29T03:08:24;4.83;;;2.52;;
70970;SDS011;58632;51.718;19.446;2022-07-29T03:10:53;4.72;;;2.67;;
70970;SDS011;58632;51.718;19.446;2022-07-29T03:13:23;6.67;;;2.70;;
70970;SDS011;58632;51.718;19.446;2022-07-29T03:15:52;7.40;;;2.65;;
70970;SDS011;58632;51.718;19.446;2022-07-29T03:18:21;9.20;;;2.90;;
70970;SDS011;58632;51.718;19.446;2022-07-29T03:20:49;7.10;;;2.60;;
70970;SDS011;58632;51.718;19.446;2022-07-29T03:23:19;4.78;;;2.50;;
70970;SDS011;58632;51.718;19.446;2022-07-29T03:25:50;6.00;;;2.60;;
70970;SDS011;58632;51.718;19.446;2022-07-29T03:28:18;6.90;;;2.70;;
70970;SDS011;58632;51.718;19.446;2022-07-29T03:30:46;7.75;;;2.70;;
70970;SDS011;58632;51.718;19.446;2022-07-29T03:33:13;7.97;;;3.27;;
70970;SDS011;58632;51.718;19.446;2022-07-29T03:35:40;6.17;;;2.60;;
70970;SDS011;58632;51.718;19.446;2022-07-29T03:38:08;6.00;;;2.20;;
70970;SDS011;58632;51.718;19.446;2022-07-29T03:43:20;9.83;;;2.80;;
70970;SDS011;58632;51.718;19.446;2022-07-29T03:45:51;8.78;;;2.50;;
70970;SDS011;58632;51.718;19.446;2022-07-29T03:48:21;6.33;;;2.75;;
70970;SDS011;58632;51.718;19.446;2022-07-29T03:50:51;9.15;;;2.40;;
70970;SDS011;58632;51.718;19.446;2022-07-29T03:53:19;7.00;;;2.20;;
70970;SDS011;58632;51.718;19.446;2022-07-29T03:55:48;10.55;;;2.80;;
70970;SDS011;58632;51.718;19.446;2022-07-29T03:58:19;4.90;;;2.33;;
70970;SDS011;58632;51.718;19.446;2022-07-29T04:00:48;6.00;;;2.30;;
70970;SDS011;58632;51.718;19.446;2022-07-29T04:03:16;4.92;;;2.27;;
70970;SDS011;58632;51.718;19.446;2022-07-29T04:05:44;7.70;;;2.50;;
70970;SDS011;58632;51.718;19.446;2022-07-29T04:08:11;8.40;;;2.52;;
70970;SDS011;58632;51.718;19.446;2022-07-29T04:10:38;9.38;;;2.65;;
70970;SDS011;58632;51.718;19.446;2022-07-29T04:13:05;10.72;;;3.42;;
70970;SDS011;58632;51.718;19.446;2022-07-29T04:15:32;8.55;;;2.87;;
70970;SDS011;58632;51.718;19.446;2022-07-29T04:18:00;6.97;;;2.95;;
70970;SDS011;58632;51.718;19.446;2022-07-29T04:20:27;9.05;;;3.08;;
70970;SDS011;58632;51.718;19.446;2022-07-29T04:22:54;6.92;;;3.12;;
70970;SDS011;58632;51.718;19.446;2022-07-29T04:25:21;7.22;;;3.37;;
70970;SDS011;58632;51.718;19.446;2022-07-29T04:27:49;6.33;;;3.27;;
70970;SDS011;58632;51.718;19.446;2022-07-29T04:30:29;8.03;;;3.40;;
70970;SDS011;58632;51.718;19.446;2022-07-29T04:32:58;8.45;;;3.72;;
70970;SDS011;58632;51.718;19.446;2022-07-29T04:35:27;8.60;;;3.42;;
70970;SDS011;58632;51.718;19.446;2022-07-29T04:37:55;9.15;;;3.47;;
70970;SDS011;58632;51.718;19.446;2022-07-29T04:40:23;7.22;;;3.52;;
70970;SDS011;58632;51.718;19.446;2022-07-29T04:42:50;7.95;;;3.58;;
70970;SDS011;58632;51.718;19.446;2022-07-29T04:45:17;7.20;;;3.50;;
70970;SDS011;58632;51.718;19.446;2022-07-29T04:47:45;7.45;;;3.42;;
70970;SDS011;58632;51.718;19.446;2022-07-29T04:50:12;8.95;;;3.50;;
70970;SDS011;58632;51.718;19.446;2022-07-29T04:52:39;6.00;;;3.47;;
70970;SDS011;58632;51.718;19.446;2022-07-29T04:55:06;5.28;;;2.72;;
70970;SDS011;58632;51.718;19.446;2022-07-29T04:57:34;8.53;;;3.17;;
70970;SDS011;58632;51.718;19.446;2022-07-29T05:00:03;7.97;;;3.12;;
70970;SDS011;58632;51.718;19.446;2022-07-29T05:02:32;9.10;;;3.10;;
70970;SDS011;58632;51.718;19.446;2022-07-29T05:04:59;9.68;;;2.60;;
70970;SDS011;58632;51.718;19.446;2022-07-29T05:07:26;6.78;;;2.58;;
70970;SDS011;58632;51.718;19.446;2022-07-29T05:09:53;5.08;;;2.20;;
70970;SDS011;58632;51.718;19.446;2022-07-29T05:12:23;9.18;;;2.62;;
70970;SDS011;58632;51.718;19.446;2022-07-29T05:14:51;11.03;;;2.40;;
70970;SDS011;58632;51.718;19.446;2022-07-29T05:17:19;7.87;;;2.25;;
70970;SDS011;58632;51.718;19.446;2022-07-29T05:19:48;11.57;;;2.55;;
70970;SDS011;58632;51.718;19.446;2022-07-29T05:22:20;10.75;;;2.50;;
70970;SDS011;58632;51.718;19.446;2022-07-29T05:24:47;4.62;;;2.00;;
70970;SDS011;58632;51.718;19.446;2022-07-29T05:27:15;5.92;;;2.70;;
70970;SDS011;58632;51.718;19.446;2022-07-29T05:29:42;7.22;;;2.10;;
70970;SDS011;58632;51.718;19.446;2022-07-29T05:32:10;9.45;;;2.33;;
70970;SDS011;58632;51.718;19.446;2022-07-29T05:34:41;9.00;;;2.35;;
70970;SDS011;58632;51.718;19.446;2022-07-29T05:37:08;5.72;;;2.20;;
70970;SDS011;58632;51.718;19.446;2022-07-29T05:39:36;5.37;;;2.15;;
70970;SDS011;58632;51.718;19.446;2022-07-29T05:42:07;5.92;;;2.50;;
70970;SDS011;58632;51.718;19.446;2022-07-29T05:44:37;8.55;;;2.60;;
70970;SDS011;58632;51.718;19.446;2022-07-29T05:47:06;8.40;;;2.55;;
70970;SDS011;58632;51.718;19.446;2022-07-29T05:49:33;6.33;;;2.10;;
70970;SDS011;58632;51.718;19.446;2022-07-29T05:52:01;7.05;;;3.05;;
70970;SDS011;58632;51.718;19.446;2022-07-29T05:54:28;7.47;;;2.27;;
70970;SDS011;58632;51.718;19.446;2022-07-29T05:56:55;8.60;;;2.52;;
70970;SDS011;58632;51.718;19.446;2022-07-29T05:59:23;4.33;;;2.27;;
70970;SDS011;58632;51.718;19.446;2022-07-29T06:01:50;7.30;;;2.27;;
70970;SDS011;58632;51.718;19.446;2022-07-29T06:04:18;5.42;;;2.22;;
70970;SDS011;58632;51.718;19.446;2022-07-29T06:06:45;7.35;;;2.00;;
70970;SDS011;58632;51.718;19.446;2022-07-29T06:09:12;4.05;;;1.62;;
70970;SDS011;58632;51.718;19.446;2022-07-29T06:11:40;5.20;;;1.80;;
70970;SDS011;58632;51.718;19.446;2022-07-29T06:14:08;4.10;;;1.65;;
70970;SDS011;58632;51.718;19.446;2022-07-29T06:16:35;5.30;;;1.75;;
70970;SDS011;58632;51.718;19.446;2022-07-29T06:19:02;5.78;;;1.80;;
70970;SDS011;58632;51.718;19.446;2022-07-29T06:21:29;5.80;;;1.82;;
70970;SDS011;58632;51.718;19.446;2022-07-29T06:23:56;4.45;;;1.82;;
70970;SDS011;58632;51.718;19.446;2022-07-29T06:26:23;7.00;;;1.98;;
70970;SDS011;58632;51.718;19.446;2022-07-29T06:28:51;4.47;;;1.60;;
70970;SDS011;58632;51.718;19.446;2022-07-29T06:31:18;3.42;;;1.40;;
70970;SDS011;58632;51.718;19.446;2022-07-29T06:33:45;3.35;;;1.70;;
70970;SDS011;58632;51.718;19.446;2022-07-29T06:36:12;4.42;;;1.50;;
70970;SDS011;58632;51.718;19.446;2022-07-29T06:38:39;3.10;;;1.50;;
70970;SDS011;58632;51.718;19.446;2022-07-29T06:41:07;2.15;;;1.20;;
70970;SDS011;58632;51.718;19.446;2022-07-29T06:43:37;6.80;;;1.55;;
70970;SDS011;58632;51.718;19.446;2022-07-29T06:46:11;4.67;;;1.27;;
70970;SDS011;58632;51.718;19.446;2022-07-29T06:48:41;3.87;;;1.42;;
70970;SDS011;58632;51.718;19.446;2022-07-29T06:51:09;6.37;;;1.52;;
70970;SDS011;58632;51.718;19.446;2022-07-29T06:53:38;3.77;;;1.40;;
70970;SDS011;58632;51.718;19.446;2022-07-29T06:56:07;3.25;;;1.35;;
70970;SDS011;58632;51.718;19.446;2022-07-29T06:58:39;3.20;;;1.52;;
70970;SDS011;58632;51.718;19.446;2022-07-29T07:01:07;2.92;;;1.20;;
70970;SDS011;58632;51.718;19.446;2022-07-29T07:03:34;4.58;;;1.60;;
70970;SDS011;58632;51.718;19.446;2022-07-29T07:06:01;5.47;;;1.40;;
70970;SDS011;58632;51.718;19.446;2022-07-29T07:08:29;3.85;;;1.35;;
70970;SDS011;58632;51.718;19.446;2022-07-29T07:10:56;2.80;;;1.10;;
70970;SDS011;58632;51.718;19.446;2022-07-29T07:13:24;2.95;;;1.47;;
70970;SDS011;58632;51.718;19.446;2022-07-29T07:15:51;8.33;;;1.45;;
70970;SDS011;58632;51.718;19.446;2022-07-29T07:18:18;4.28;;;1.30;;
70970;SDS011;58632;51.718;19.446;2022-07-29T07:20:45;3.40;;;1.20;;
70970;SDS011;58632;51.718;19.446;2022-07-29T07:23:13;4.20;;;1.12;;
70970;SDS011;58632;51.718;19.446;2022-07-29T07:25:41;3.60;;;1.37;;
70970;SDS011;58632;51.718;19.446;2022-07-29T07:28:08;6.67;;;1.32;;
70970;SDS011;58632;51.718;19.446;2022-07-29T07:30:36;4.22;;;1.30;;
70970;SDS011;58632;51.718;19.446;2022-07-29T07:33:03;3.60;;;1.30;;
70970;SDS011;58632;51.718;19.446;2022-07-29T07:35:31;7.37;;;1.50;;
70970;SDS011;58632;51.718;19.446;2022-07-29T07:37:58;3.00;;;1.30;;
70970;SDS011;58632;51.718;19.446;2022-07-29T07:40:26;7.90;;;1.50;;
70970;SDS011;58632;51.718;19.446;2022-07-29T07:42:53;3.50;;;1.50;;
70970;SDS011;58632;51.718;19.446;2022-07-29T07:45:20;6.17;;;1.90;;
70970;SDS011;58632;51.718;19.446;2022-07-29T07:47:48;6.20;;;1.87;;
70970;SDS011;58632;51.718;19.446;2022-07-29T07:50:15;2.62;;;1.20;;
70970;SDS011;58632;51.718;19.446;2022-07-29T07:52:51;2.27;;;1.30;;
70970;SDS011;58632;51.718;19.446;2022-07-29T07:55:23;7.83;;;1.77;;
70970;SDS011;58632;51.718;19.446;2022-07-29T07:57:50;4.62;;;1.35;;
70970;SDS011;58632;51.718;19.446;2022-07-29T08:00:18;3.95;;;1.10;;
70970;SDS011;58632;51.718;19.446;2022-07-29T08:02:46;2.80;;;1.20;;
70970;SDS011;58632;51.718;19.446;2022-07-29T08:05:13;2.58;;;1.20;;
70970;SDS011;58632;51.718;19.446;2022-07-29T08:07:43;3.60;;;1.07;;
70970;SDS011;58632;51.718;19.446;2022-07-29T08:10:13;2.45;;;1.25;;
70970;SDS011;58632;51.718;19.446;2022-07-29T08:12:45;2.67;;;1.00;;
70970;SDS011;58632;51.718;19.446;2022-07-29T08:15:12;1.98;;;1.00;;
70970;SDS011;58632;51.718;19.446;2022-07-29T08:17:39;1.92;;;0.80;;
70970;SDS011;58632;51.718;19.446;2022-07-29T08:20:08;2.70;;;1.00;;
70970;SDS011;58632;51.718;19.446;2022-07-29T08:22:36;2.75;;;0.80;;
70970;SDS011;58632;51.718;19.446;2022-07-29T08:25:03;2.70;;;1.00;;
70970;SDS011;58632;51.718;19.446;2022-07-29T08:27:32;4.97;;;1.20;;
70970;SDS011;58632;51.718;19.446;2022-07-29T08:29:59;4.00;;;1.05;;
70970;SDS011;58632;51.718;19.446;2022-07-29T08:32:26;3.85;;;1.05;;
70970;SDS011;58632;51.718;19.446;2022-07-29T08:34:54;3.98;;;0.90;;
70970;SDS011;58632;51.718;19.446;2022-07-29T08:37:21;2.50;;;0.75;;
70970;SDS011;58632;51.718;19.446;2022-07-29T08:39:49;4.45;;;1.10;;
70970;SDS011;58632;51.718;19.446;2022-07-29T08:42:16;5.83;;;0.90;;
70970;SDS011;58632;51.718;19.446;2022-07-29T08:44:43;4.67;;;0.80;;
70970;SDS011;58632;51.718;19.446;2022-07-29T08:47:13;3.85;;;1.05;;
70970;SDS011;58632;51.718;19.446;2022-07-29T08:49:41;4.40;;;0.80;;
70970;SDS011;58632;51.718;19.446;2022-07-29T08:52:11;4.28;;;1.00;;
70970;SDS011;58632;51.718;19.446;2022-07-29T08:54:42;4.97;;;1.00;;
70970;SDS011;58632;51.718;19.446;2022-07-29T08:57:12;2.67;;;0.90;;
70970;SDS011;58632;51.718;19.446;2022-07-29T08:59:41;2.47;;;0.95;;
70970;SDS011;58632;51.718;19.446;2022-07-29T09:02:21;2.87;;;1.00;;
70970;SDS011;58632;51.718;19.446;2022-07-29T09:04:51;8.70;;;1.20;;
70970;SDS011;58632;51.718;19.446;2022-07-29T09:07:19;4.17;;;0.90;;
70970;SDS011;58632;51.718;19.446;2022-07-29T09:09:46;3.50;;;0.82;;
70970;SDS011;58632;51.718;19.446;2022-07-29T09:12:14;4.28;;;1.12;;
70970;SDS011;58632;51.718;19.446;2022-07-29T09:14:42;7.97;;;1.27;;
70970;SDS011;58632;51.718;19.446;2022-07-29T09:17:10;7.03;;;1.30;;
70970;SDS011;58632;51.718;19.446;2022-07-29T09:19:37;8.90;;;1.85;;
70970;SDS011;58632;51.718;19.446;2022-07-29T09:22:05;3.58;;;1.07;;
70970;SDS011;58632;51.718;19.446;2022-07-29T09:24:43;4.80;;;1.25;;
70970;SDS011;58632;51.718;19.446;2022-07-29T09:27:20;4.53;;;1.10;;
70970;SDS011;58632;51.718;19.446;2022-07-29T09:29:59;4.45;;;1.10;;
70970;SDS011;58632;51.718;19.446;2022-07-29T09:33:00;3.65;;;1.15;;
70970;SDS011;58632;51.718;19.446;2022-07-29T09:35:30;3.55;;;1.07;;
70970;SDS011;58632;51.718;19.446;2022-07-29T09:38:00;2.37;;;0.88;;
70970;SDS011;58632;51.718;19.446;2022-07-29T09:40:40;2.70;;;0.95;;
70970;SDS011;58632;51.718;19.446;2022-07-29T09:43:11;3.02;;;1.00;;
70970;SDS011;58632;51.718;19.446;2022-07-29T09:45:39;2.52;;;1.00;;
70970;SDS011;58632;51.718;19.446;2022-07-29T09:48:17;4.20;;;0.90;;
70970;SDS011;58632;51.718;19.446;2022-07-29T09:50:47;3.50;;;1.00;;
70970;SDS011;58632;51.718;19.446;2022-07-29T09:53:35;2.55;;;1.20;;
70970;SDS011;58632;51.718;19.446;2022-07-29T09:56:06;2.98;;;0.93;;
70970;SDS011;58632;51.718;19.446;2022-07-29T09:58:33;5.90;;;1.20;;
70970;SDS011;58632;51.718;19.446;2022-07-29T10:01:01;4.90;;;1.05;;
70970;SDS011;58632;51.718;19.446;2022-07-29T10:03:28;7.83;;;1.10;;
70970;SDS011;58632;51.718;19.446;2022-07-29T10:06:11;4.58;;;1.10;;
70970;SDS011;58632;51.718;19.446;2022-07-29T10:08:39;7.05;;;1.10;;
70970;SDS011;58632;51.718;19.446;2022-07-29T10:11:13;2.42;;;0.98;;
70970;SDS011;58632;51.718;19.446;2022-07-29T10:13:45;3.50;;;0.98;;
70970;SDS011;58632;51.718;19.446;2022-07-29T10:16:15;3.58;;;0.90;;
70970;SDS011;58632;51.718;19.446;2022-07-29T10:18:43;6.47;;;1.07;;
70970;SDS011;58632;51.718;19.446;2022-07-29T10:21:13;6.53;;;1.05;;
70970;SDS011;58632;51.718;19.446;2022-07-29T10:23:40;4.58;;;1.20;;
70970;SDS011;58632;51.718;19.446;2022-07-29T10:26:09;2.95;;;0.90;;
70970;SDS011;58632;51.718;19.446;2022-07-29T10:28:37;4.65;;;1.05;;
70970;SDS011;58632;51.718;19.446;2022-07-29T10:31:05;4.33;;;1.05;;
70970;SDS011;58632;51.718;19.446;2022-07-29T10:36:56;6.67;;;1.22;;
70970;SDS011;58632;51.718;19.446;2022-07-29T10:42:57;4.95;;;1.00;;
70970;SDS011;58632;51.718;19.446;2022-07-29T10:45:30;2.25;;;1.00;;
70970;SDS011;58632;51.718;19.446;2022-07-29T10:48:03;4.65;;;1.10;;
70970;SDS011;58632;51.718;19.446;2022-07-29T10:53:45;5.00;;;1.17;;
70970;SDS011;58632;51.718;19.446;2022-07-29T11:01:50;6.42;;;1.47;;
70970;SDS011;58632;51.718;19.446;2022-07-29T11:07:19;3.17;;;1.10;;
70970;SDS011;58632;51.718;19.446;2022-07-29T11:10:18;6.75;;;1.45;;
70970;SDS011;58632;51.718;19.446;2022-07-29T11:15:15;6.72;;;1.45;;
70970;SDS011;58632;51.718;19.446;2022-07-29T11:20:41;4.25;;;1.20;;
70970;SDS011;58632;51.718;19.446;2022-07-29T11:23:24;4.53;;;1.00;;
70970;SDS011;58632;51.718;19.446;2022-07-29T11:31:38;6.90;;;1.40;;
70970;SDS011;58632;51.718;19.446;2022-07-29T11:34:19;2.27;;;0.90;;
70970;SDS011;58632;51.718;19.446;2022-07-29T11:47:37;5.72;;;1.05;;
70970;SDS011;58632;51.718;19.446;2022-07-29T11:50:09;3.83;;;1.20;;
70970;SDS011;58632;51.718;19.446;2022-07-29T11:52:40;2.02;;;1.20;;
70970;SDS011;58632;51.718;19.446;2022-07-29T11:55:17;3.33;;;1.10;;
70970;SDS011;58632;51.718;19.446;2022-07-29T11:57:53;3.72;;;1.10;;
70970;SDS011;58632;51.718;19.446;2022-07-29T12:00:30;5.08;;;1.20;;
70970;SDS011;58632;51.718;19.446;2022-07-29T12:03:10;4.65;;;1.30;;
70970;SDS011;58632;51.718;19.446;2022-07-29T12:05:41;6.20;;;1.00;;
70970;SDS011;58632;51.718;19.446;2022-07-29T12:08:12;3.72;;;1.10;;
70970;SDS011;58632;51.718;19.446;2022-07-29T12:10:49;3.85;;;1.10;;
70970;SDS011;58632;51.718;19.446;2022-07-29T12:13:18;3.05;;;1.35;;
70970;SDS011;58632;51.718;19.446;2022-07-29T12:15:54;5.45;;;1.20;;
70970;SDS011;58632;51.718;19.446;2022-07-29T12:18:24;5.40;;;1.27;;
70970;SDS011;58632;51.718;19.446;2022-07-29T12:20:58;8.08;;;1.25;;
70970;SDS011;58632;51.718;19.446;2022-07-29T12:23:29;3.02;;;1.10;;
70970;SDS011;58632;51.718;19.446;2022-07-29T12:25:58;1.55;;;0.90;;
70970;SDS011;58632;51.718;19.446;2022-07-29T12:28:26;6.10;;;1.20;;
70970;SDS011;58632;51.718;19.446;2022-07-29T12:30:53;2.40;;;0.90;;
70970;SDS011;58632;51.718;19.446;2022-07-29T12:33:24;2.27;;;1.17;;
70970;SDS011;58632;51.718;19.446;2022-07-29T12:35:54;8.48;;;1.20;;
70970;SDS011;58632;51.718;19.446;2022-07-29T12:38:28;4.65;;;1.05;;
70970;SDS011;58632;51.718;19.446;2022-07-29T12:40:56;7.85;;;1.35;;
70970;SDS011;58632;51.718;19.446;2022-07-29T12:43:24;10.78;;;1.35;;
70970;SDS011;58632;51.718;19.446;2022-07-29T12:45:55;4.22;;;0.95;;
70970;SDS011;58632;51.718;19.446;2022-07-29T12:48:36;5.35;;;1.10;;
70970;SDS011;58632;51.718;19.446;2022-07-29T12:51:07;5.25;;;1.00;;
70970;SDS011;58632;51.718;19.446;2022-07-29T12:53:37;9.88;;;1.40;;
70970;SDS011;58632;51.718;19.446;2022-07-29T12:56:05;3.05;;;1.07;;
70970;SDS011;58632;51.718;19.446;2022-07-29T12:58:38;7.08;;;1.27;;
70970;SDS011;58632;51.718;19.446;2022-07-29T13:01:12;6.50;;;1.12;;
70970;SDS011;58632;51.718;19.446;2022-07-29T13:03:44;4.53;;;1.10;;
70970;SDS011;58632;51.718;19.446;2022-07-29T13:06:27;13.48;;;1.95;;
70970;SDS011;58632;51.718;19.446;2022-07-29T13:09:17;5.25;;;1.10;;
70970;SDS011;58632;51.718;19.446;2022-07-29T13:11:52;6.72;;;1.35;;
70970;SDS011;58632;51.718;19.446;2022-07-29T13:14:29;2.65;;;1.00;;
70970;SDS011;58632;51.718;19.446;2022-07-29T13:17:15;6.40;;;1.00;;
70970;SDS011;58632;51.718;19.446;2022-07-29T13:19:50;3.35;;;1.20;;
70970;SDS011;58632;51.718;19.446;2022-07-29T13:22:20;3.22;;;1.10;;
70970;SDS011;58632;51.718;19.446;2022-07-29T13:24:54;4.65;;;1.27;;
70970;SDS011;58632;51.718;19.446;2022-07-29T13:27:25;3.95;;;1.17;;
70970;SDS011;58632;51.718;19.446;2022-07-29T13:29:54;5.25;;;0.88;;
70970;SDS011;58632;51.718;19.446;2022-07-29T13:32:24;4.28;;;1.10;;
70970;SDS011;58632;51.718;19.446;2022-07-29T13:34:53;3.42;;;0.95;;
70970;SDS011;58632;51.718;19.446;2022-07-29T13:37:22;5.50;;;1.20;;
70970;SDS011;58632;51.718;19.446;2022-07-29T13:39:50;3.22;;;1.07;;
70970;SDS011;58632;51.718;19.446;2022-07-29T13:42:17;6.78;;;1.25;;
70970;SDS011;58632;51.718;19.446;2022-07-29T13:44:45;3.77;;;1.30;;
70970;SDS011;58632;51.718;19.446;2022-07-29T13:47:12;6.53;;;1.35;;
70970;SDS011;58632;51.718;19.446;2022-07-29T13:49:39;4.62;;;1.10;;
70970;SDS011;58632;51.718;19.446;2022-07-29T13:52:07;4.12;;;1.00;;
70970;SDS011;58632;51.718;19.446;2022-07-29T13:54:34;5.15;;;0.93;;
70970;SDS011;58632;51.718;19.446;2022-07-29T13:57:04;4.17;;;1.42;;
70970;SDS011;58632;51.718;19.446;2022-07-29T13:59:32;6.17;;;1.00;;
70970;SDS011;58632;51.718;19.446;2022-07-29T14:01:59;4.15;;;0.95;;
70970;SDS011;58632;51.718;19.446;2022-07-29T14:04:26;2.92;;;0.95;;
70970;SDS011;58632;51.718;19.446;2022-07-29T14:06:54;4.30;;;1.20;;
70970;SDS011;58632;51.718;19.446;2022-07-29T14:09:21;5.28;;;1.10;;
70970;SDS011;58632;51.718;19.446;2022-07-29T14:11:48;5.30;;;1.20;;
70970;SDS011;58632;51.718;19.446;2022-07-29T14:14:17;17.00;;;1.67;;
70970;SDS011;58632;51.718;19.446;2022-07-29T14:16:46;9.45;;;1.40;;
70970;SDS011;58632;51.718;19.446;2022-07-29T14:19:13;6.15;;;1.17;;
70970;SDS011;58632;51.718;19.446;2022-07-29T14:21:40;6.37;;;1.20;;
70970;SDS011;58632;51.718;19.446;2022-07-29T14:24:08;4.65;;;1.07;;
70970;SDS011;58632;51.718;19.446;2022-07-29T14:26:35;5.58;;;1.10;;
70970;SDS011;58632;51.718;19.446;2022-07-29T14:29:02;5.17;;;1.07;;
70970;SDS011;58632;51.718;19.446;2022-07-29T14:31:29;3.22;;;0.98;;
70970;SDS011;58632;51.718;19.446;2022-07-29T14:33:57;6.58;;;1.02;;
70970;SDS011;58632;51.718;19.446;2022-07-29T14:36:24;3.17;;;0.80;;
70970;SDS011;58632;51.718;19.446;2022-07-29T14:38:51;7.78;;;1.30;;
70970;SDS011;58632;51.718;19.446;2022-07-29T14:41:19;3.47;;;0.90;;
70970;SDS011;58632;51.718;19.446;2022-07-29T14:43:47;3.58;;;1.10;;
70970;SDS011;58632;51.718;19.446;2022-07-29T14:46:14;2.62;;;0.90;;
70970;SDS011;58632;51.718;19.446;2022-07-29T14:48:42;2.85;;;1.00;;
70970;SDS011;58632;51.718;19.446;2022-07-29T14:51:09;5.05;;;1.50;;
70970;SDS011;58632;51.718;19.446;2022-07-29T14:53:37;11.93;;;2.00;;
70970;SDS011;58632;51.718;19.446;2022-07-29T14:56:04;7.53;;;1.92;;
70970;SDS011;58632;51.718;19.446;2022-07-29T14:58:31;4.83;;;1.20;;
70970;SDS011;58632;51.718;19.446;2022-07-29T15:00:58;7.03;;;1.60;;
70970;SDS011;58632;51.718;19.446;2022-07-29T15:03:27;4.80;;;1.12;;
70970;SDS011;58632;51.718;19.446;2022-07-29T15:05:55;5.20;;;1.42;;
70970;SDS011;58632;51.718;19.446;2022-07-29T15:08:22;4.10;;;1.20;;
70970;SDS011;58632;51.718;19.446;2022-07-29T15:10:51;3.67;;;1.20;;
70970;SDS011;58632;51.718;19.446;2022-07-29T15:13:18;6.65;;;1.30;;
70970;SDS011;58632;51.718;19.446;2022-07-29T15:15:46;5.03;;;1.30;;
70970;SDS011;58632;51.718;19.446;2022-07-29T15:18:13;4.72;;;1.00;;
70970;SDS011;58632;51.718;19.446;2022-07-29T15:20:40;7.03;;;0.90;;
70970;SDS011;58632;51.718;19.446;2022-07-29T15:23:08;6.37;;;1.20;;
70970;SDS011;58632;51.718;19.446;2022-07-29T15:25:36;7.33;;;1.30;;
70970;SDS011;58632;51.718;19.446;2022-07-29T15:28:03;8.63;;;1.30;;
70970;SDS011;58632;51.718;19.446;2022-07-29T15:30:33;10.65;;;1.35;;
70970;SDS011;58632;51.718;19.446;2022-07-29T15:33:03;4.55;;;1.07;;
70970;SDS011;58632;51.718;19.446;2022-07-29T15:35:31;2.55;;;1.22;;
70970;SDS011;58632;51.718;19.446;2022-07-29T15:37:58;4.37;;;1.50;;
70970;SDS011;58632;51.718;19.446;2022-07-29T15:40:26;4.83;;;1.32;;
70970;SDS011;58632;51.718;19.446;2022-07-29T15:42:54;5.42;;;1.50;;
70970;SDS011;58632;51.718;19.446;2022-07-29T15:45:22;6.42;;;1.30;;
70970;SDS011;58632;51.718;19.446;2022-07-29T15:47:49;4.20;;;1.20;;
70970;SDS011;58632;51.718;19.446;2022-07-29T15:50:16;4.65;;;1.30;;